createdAt,value
2022-10-01T00:12:46.585Z,966.51
2022-10-01T00:27:48.951Z,966.44
2022-10-01T00:42:51.568Z,966.53
2022-10-01T00:57:53.848Z,966.61
2022-10-01T01:12:56.091Z,966.87
2022-10-01T01:27:58.612Z,966.95
2022-10-01T01:43:00.999Z,966.82
2022-10-01T01:58:03.228Z,967.33
2022-10-01T02:13:05.631Z,967.54
2022-10-01T02:28:07.972Z,967.69
2022-10-01T02:43:10.335Z,967.77
2022-10-01T02:58:12.682Z,967.85
2022-10-01T03:13:15.184Z,967.93
2022-10-01T03:28:17.647Z,968.08
2022-10-01T03:43:19.960Z,968.18
2022-10-01T03:58:22.194Z,968.17
2022-10-01T04:13:24.564Z,968.51
2022-10-01T04:28:26.923Z,968.63
2022-10-01T04:43:29.633Z,968.58
2022-10-01T04:58:31.933Z,968.55
2022-10-01T05:13:34.180Z,968.48
2022-10-01T05:28:36.612Z,968.53
2022-10-01T05:43:39.057Z,968.56
2022-10-01T05:58:41.398Z,968.7
2022-10-01T06:13:43.649Z,968.77
2022-10-01T06:28:45.975Z,969.04
2022-10-01T06:43:48.261Z,969.11
2022-10-01T06:58:50.556Z,969.2
2022-10-01T07:13:54.727Z,969.39
2022-10-01T07:28:57.340Z,969.39
2022-10-01T07:43:59.628Z,969.55
2022-10-01T07:59:02.005Z,969.58
2022-10-01T08:14:04.350Z,969.56
2022-10-01T08:29:06.701Z,969.59
2022-10-01T08:44:09.035Z,969.87
2022-10-01T08:59:11.345Z,969.98
2022-10-01T09:14:13.791Z,970.03
2022-10-01T09:29:16.067Z,970.2
2022-10-01T09:44:19.020Z,970.41
2022-10-01T09:59:21.435Z,970.34
2022-10-01T10:14:23.708Z,970.45
2022-10-01T10:29:26.003Z,970.28
2022-10-01T10:44:28.376Z,970.36
2022-10-01T10:59:30.720Z,970.37
2022-10-01T11:14:33.007Z,970.5
2022-10-01T11:29:35.372Z,970.6
2022-10-01T11:44:37.660Z,970.58
2022-10-01T11:59:39.904Z,970.69
2022-10-01T12:14:42.256Z,970.78
2022-10-01T12:29:44.557Z,970.74
2022-10-01T12:44:46.832Z,970.74
2022-10-01T12:59:49.107Z,970.83
2022-10-01T13:14:51.423Z,970.91
2022-10-01T13:29:53.729Z,970.94
2022-10-01T13:44:55.982Z,971
2022-10-01T13:59:58.251Z,971.01
2022-10-01T14:15:00.545Z,971.04
2022-10-01T14:30:02.836Z,970.97
2022-10-01T14:45:05.151Z,971
2022-10-01T15:00:07.526Z,970.86
2022-10-01T15:15:09.819Z,970.81
2022-10-01T15:30:12.151Z,970.84
2022-10-01T15:45:14.415Z,970.69
2022-10-01T16:00:16.887Z,970.43
2022-10-01T16:15:19.415Z,971.57
2022-10-01T16:30:21.774Z,970.47
2022-10-01T16:45:24.097Z,970.59
2022-10-01T17:00:26.349Z,970.17
2022-10-01T17:15:28.743Z,970.07
2022-10-01T17:30:31.039Z,969.87
2022-10-01T17:45:33.458Z,969.51
2022-10-01T18:00:35.806Z,969.39
2022-10-01T18:15:38.083Z,969.12
2022-10-01T18:30:40.401Z,968.81
2022-10-01T18:45:42.788Z,968.57
2022-10-01T19:00:45.328Z,968.09
2022-10-01T19:15:47.662Z,967.84
2022-10-01T19:30:49.959Z,967.47
2022-10-01T19:45:52.261Z,967.1
2022-10-01T20:00:54.620Z,966.77
2022-10-01T20:15:57.211Z,966.5
2022-10-01T20:30:59.543Z,966.19
2022-10-01T20:46:01.968Z,965.74
2022-10-01T21:01:04.482Z,965.37
2022-10-01T21:16:07.061Z,965.1
2022-10-01T21:31:09.408Z,964.81
2022-10-01T21:46:11.816Z,964.65
2022-10-01T22:01:14.184Z,964.45
2022-10-01T22:16:16.606Z,964.24
2022-10-01T22:31:18.994Z,964.03
2022-10-01T22:46:21.287Z,963.9
2022-10-01T23:01:23.747Z,963.75
2022-10-01T23:16:26.217Z,963.65
2022-10-01T23:31:28.750Z,963.49
2022-10-01T23:46:31.188Z,963.45
